createdAt,value
2023-02-05T00:00:01.039Z,0.40
2023-02-05T00:02:29.045Z,0.50
2023-02-05T00:04:57.081Z,0.50
2023-02-05T00:07:25.271Z,0.40
2023-02-05T00:09:54.590Z,0.20
2023-02-05T00:12:22.650Z,0.20
2023-02-05T00:14:50.658Z,0.30
2023-02-05T00:17:18.691Z,0.30
2023-02-05T00:19:46.679Z,0.40
2023-02-05T00:22:14.715Z,0.50
2023-02-05T00:24:42.797Z,0.60
2023-02-05T00:27:12.391Z,0.70
2023-02-05T00:29:40.466Z,0.70
2023-02-05T00:32:08.460Z,0.70
2023-02-05T00:34:36.678Z,0.80
2023-02-05T00:37:05.016Z,0.70
2023-02-05T00:39:32.968Z,0.80
2023-02-05T00:42:00.954Z,0.70
2023-02-05T00:44:30.355Z,0.80
2023-02-05T00:46:58.426Z,0.80
2023-02-05T00:49:26.413Z,0.80
2023-02-05T00:51:54.402Z,0.80
2023-02-05T00:54:22.411Z,0.70
2023-02-05T00:56:50.359Z,0.80
2023-02-05T00:59:18.430Z,0.80
2023-02-05T01:01:47.896Z,0.80
2023-02-05T01:04:15.943Z,0.80
2023-02-05T01:06:43.925Z,0.90
2023-02-05T01:09:11.924Z,1.00
2023-02-05T01:11:39.908Z,1.00
2023-02-05T01:14:08.051Z,1.10
2023-02-05T01:16:36.017Z,1.10
2023-02-05T01:19:05.454Z,1.10
2023-02-05T01:21:33.453Z,1.10
2023-02-05T01:24:01.633Z,1.10
2023-02-05T01:26:29.609Z,1.10
2023-02-05T01:28:57.579Z,1.10
2023-02-05T01:31:28.188Z,1.10
2023-02-05T01:33:56.662Z,1.10
2023-02-05T01:36:31.241Z,1.10
2023-02-05T01:38:59.194Z,1.10
2023-02-05T01:41:27.172Z,1.10
2023-02-05T01:44:10.182Z,1.20
2023-02-05T01:46:39.650Z,1.30
2023-02-05T01:49:11.809Z,1.30
2023-02-05T01:51:41.787Z,1.30
2023-02-05T01:54:10.492Z,1.30
2023-02-05T01:56:41.942Z,1.40
2023-02-05T01:59:14.626Z,1.40
2023-02-05T02:01:44.559Z,1.40
2023-02-05T02:04:14.791Z,1.30
2023-02-05T02:06:44.211Z,1.30
2023-02-05T02:09:13.316Z,1.30
2023-02-05T02:11:44.645Z,1.30
2023-02-05T02:14:13.577Z,1.30
2023-02-05T02:16:42.449Z,1.30
2023-02-05T02:19:15.646Z,1.40
2023-02-05T02:22:24.196Z,1.40
2023-02-05T02:25:22.818Z,1.40
2023-02-05T02:27:56.907Z,1.90
2023-02-05T02:30:32.446Z,1.40
2023-02-05T02:33:07.896Z,1.30
2023-02-05T02:35:44.551Z,1.20
2023-02-05T02:38:21.943Z,1.20
2023-02-05T02:40:53.337Z,1.10
2023-02-05T02:43:26.390Z,1.10
2023-02-05T02:45:59.635Z,1.00
2023-02-05T02:48:30.436Z,0.90
2023-02-05T02:50:59.954Z,0.80
2023-02-05T02:53:31.096Z,0.70
2023-02-05T02:56:04.969Z,0.70
2023-02-05T02:58:38.862Z,0.60
2023-02-05T03:01:10.135Z,0.50
2023-02-05T03:03:51.332Z,0.50
2023-02-05T03:06:21.083Z,0.30
2023-02-05T03:08:54.392Z,0.30
2023-02-05T03:11:22.630Z,0.20
2023-02-05T03:13:51.968Z,0.20
2023-02-05T03:16:21.227Z,0.10
2023-02-05T03:19:02.840Z,0.00
2023-02-05T03:21:34.823Z,0.00
2023-02-05T03:24:05.396Z,0.00
2023-02-05T03:26:35.998Z,0.00
2023-02-05T03:29:16.663Z,0.00
2023-02-05T03:32:04.456Z,-0.10
2023-02-05T03:35:06.843Z,0.00
2023-02-05T03:37:55.384Z,-0.10
2023-02-05T03:40:38.600Z,-0.10
2023-02-05T03:43:19.978Z,-0.10
2023-02-05T03:45:58.647Z,-0.10
2023-02-05T03:48:46.196Z,-0.10
2023-02-05T03:51:24.779Z,-0.20
2023-02-05T03:54:05.205Z,-0.20
2023-02-05T03:56:40.276Z,-0.30
2023-02-05T03:59:09.208Z,-0.40
2023-02-05T04:01:38.910Z,-0.40
2023-02-05T04:04:07.006Z,-0.40
2023-02-05T04:06:35.253Z,-0.50
2023-02-05T04:09:03.242Z,-0.50
2023-02-05T04:11:33.233Z,-0.50
2023-02-05T04:14:01.303Z,-0.50
2023-02-05T04:16:29.311Z,-0.60
2023-02-05T04:18:58.720Z,-0.60
2023-02-05T04:21:27.575Z,-0.60
2023-02-05T04:23:56.581Z,-0.70
2023-02-05T04:26:24.595Z,-0.60
2023-02-05T04:28:52.554Z,-0.60
2023-02-05T04:31:20.542Z,-0.60
2023-02-05T04:33:48.746Z,-0.80
2023-02-05T04:36:18.086Z,-0.90
2023-02-05T04:38:46.123Z,-0.90
2023-02-05T04:41:14.700Z,-0.70
2023-02-05T04:43:42.830Z,-0.90
2023-02-05T04:46:12.396Z,-0.90
2023-02-05T04:48:40.629Z,-1.00
2023-02-05T04:51:09.397Z,-0.90
2023-02-05T04:53:39.157Z,-1.00
2023-02-05T04:56:09.051Z,-1.10
2023-02-05T04:58:37.294Z,-1.20
2023-02-05T05:01:05.937Z,-1.30
2023-02-05T05:03:34.245Z,-1.30
2023-02-05T05:06:05.654Z,-1.50
2023-02-05T05:08:33.801Z,-1.40
2023-02-05T05:11:08.062Z,-1.30
2023-02-05T05:13:43.368Z,-1.10
2023-02-05T05:16:12.502Z,-1.00
2023-02-05T05:18:41.188Z,-0.90
2023-02-05T05:21:09.950Z,-0.80
2023-02-05T05:23:38.513Z,-0.80
2023-02-05T05:26:10.104Z,-0.70
2023-02-05T05:28:38.319Z,-0.80
2023-02-05T05:31:10.902Z,-0.80
2023-02-05T05:33:39.073Z,-0.80
2023-02-05T05:36:08.528Z,-0.90
2023-02-05T05:38:36.881Z,-0.90
2023-02-05T05:41:22.932Z,-0.90
2023-02-05T05:43:53.145Z,-0.90
2023-02-05T05:46:40.982Z,-0.90
2023-02-05T05:49:09.064Z,-1.00
2023-02-05T05:51:37.204Z,-1.00
2023-02-05T05:54:05.412Z,-1.00
2023-02-05T05:56:34.037Z,-0.90
2023-02-05T05:59:03.397Z,-0.90
2023-02-05T06:01:31.358Z,-0.80
2023-02-05T06:04:05.847Z,-0.80
2023-02-05T06:06:33.884Z,-0.80
2023-02-05T06:09:01.935Z,-0.80
2023-02-05T06:11:30.026Z,-0.80
2023-02-05T06:13:58.010Z,-0.70
2023-02-05T06:16:27.586Z,-0.70
2023-02-05T06:18:56.816Z,-0.70
2023-02-05T06:21:31.655Z,-0.60
2023-02-05T06:23:59.794Z,-0.50
2023-02-05T06:26:27.802Z,-0.50
2023-02-05T06:28:57.168Z,-0.40
2023-02-05T06:31:25.326Z,-0.40
2023-02-05T06:33:55.834Z,-0.40
2023-02-05T06:36:24.261Z,-0.30
2023-02-05T06:38:52.232Z,-0.20
2023-02-05T06:41:20.281Z,-0.10
2023-02-05T06:43:48.308Z,-0.20
2023-02-05T06:46:16.347Z,-0.10
2023-02-05T06:48:44.351Z,-0.10
2023-02-05T06:51:14.471Z,-0.10
2023-02-05T06:53:43.648Z,-0.10
2023-02-05T06:56:17.697Z,-0.10
2023-02-05T06:58:46.225Z,-0.10
2023-02-05T07:01:14.228Z,-0.10
2023-02-05T07:03:42.375Z,0.00
2023-02-05T07:06:10.748Z,0.10
2023-02-05T07:08:40.093Z,0.00
2023-02-05T07:11:08.057Z,0.10
2023-02-05T07:13:36.132Z,0.10
2023-02-05T07:16:05.661Z,0.20
2023-02-05T07:18:36.356Z,0.20
2023-02-05T07:21:06.952Z,0.30
2023-02-05T07:23:35.352Z,0.40
2023-02-05T07:26:10.071Z,0.40
2023-02-05T07:28:38.414Z,0.50
2023-02-05T07:31:10.508Z,0.60
2023-02-05T07:33:38.962Z,0.70
2023-02-05T07:36:08.907Z,0.80
2023-02-05T07:38:37.994Z,0.90
2023-02-05T07:41:06.717Z,1.00
2023-02-05T07:43:36.604Z,1.00
2023-02-05T07:46:10.289Z,1.10
2023-02-05T07:48:38.687Z,1.00
2023-02-05T07:51:07.324Z,1.00
2023-02-05T07:53:35.359Z,1.00
2023-02-05T07:56:04.525Z,1.10
2023-02-05T07:58:32.608Z,1.20
2023-02-05T08:01:06.150Z,1.20
2023-02-05T08:03:34.629Z,1.30
2023-02-05T08:06:22.794Z,1.30
2023-02-05T08:08:50.972Z,1.30
2023-02-05T08:11:19.877Z,1.50
2023-02-05T08:13:48.101Z,1.60
2023-02-05T08:16:17.994Z,1.80
2023-02-05T08:18:50.326Z,1.90
2023-02-05T08:21:19.170Z,2.00
2023-02-05T08:23:47.966Z,2.10
2023-02-05T08:26:16.281Z,2.20
2023-02-05T08:28:44.572Z,2.40
2023-02-05T08:31:14.930Z,2.60
2023-02-05T08:33:45.798Z,2.60
2023-02-05T08:36:14.980Z,2.60
2023-02-05T08:38:43.039Z,2.80
2023-02-05T08:41:13.576Z,2.90
2023-02-05T08:43:42.709Z,2.80
2023-02-05T08:46:10.951Z,2.90
2023-02-05T08:48:39.366Z,2.90
2023-02-05T08:51:12.320Z,2.90
2023-02-05T08:53:40.802Z,2.90
2023-02-05T08:56:10.557Z,3.00
2023-02-05T08:58:39.118Z,3.10
2023-02-05T09:01:10.131Z,3.30
2023-02-05T09:03:38.329Z,3.40
2023-02-05T09:06:07.291Z,3.10
2023-02-05T09:08:37.417Z,3.20
2023-02-05T09:11:05.972Z,3.40
2023-02-05T09:13:34.092Z,3.50
2023-02-05T09:16:02.137Z,3.60
2023-02-05T09:18:30.107Z,3.70
2023-02-05T09:20:58.148Z,3.60
2023-02-05T09:23:27.273Z,3.70
2023-02-05T09:25:59.318Z,3.80
2023-02-05T09:28:27.662Z,3.80
2023-02-05T09:30:55.769Z,3.60
2023-02-05T09:33:23.795Z,3.60
2023-02-05T09:35:51.824Z,3.60
2023-02-05T09:38:28.764Z,3.60
2023-02-05T09:41:01.127Z,3.70
2023-02-05T09:43:39.733Z,3.70
2023-02-05T09:46:15.473Z,3.80
2023-02-05T09:48:55.731Z,3.80
2023-02-05T09:51:31.891Z,3.90
2023-02-05T09:54:17.795Z,3.80
2023-02-05T09:56:48.368Z,3.90
2023-02-05T09:59:22.497Z,4.00
2023-02-05T10:01:53.915Z,4.10
2023-02-05T10:04:22.957Z,4.10
2023-02-05T10:07:19.594Z,4.30
2023-02-05T10:10:22.485Z,4.20
2023-02-05T10:13:32.203Z,4.10
2023-02-05T10:16:35.241Z,4.30
2023-02-05T10:19:35.274Z,4.30
2023-02-05T10:22:13.922Z,4.30
2023-02-05T10:25:03.762Z,4.20
2023-02-05T10:27:40.435Z,4.20
2023-02-05T10:30:18.118Z,4.20
2023-02-05T10:32:57.238Z,4.30
2023-02-05T10:35:28.070Z,4.30
2023-02-05T10:37:58.010Z,4.40
2023-02-05T10:40:29.773Z,4.50
2023-02-05T10:43:02.673Z,4.50
2023-02-05T10:45:32.380Z,4.50
2023-02-05T10:48:38.142Z,4.70
2023-02-05T10:51:17.407Z,4.60
2023-02-05T10:53:51.209Z,4.60
2023-02-05T10:56:21.661Z,4.70
2023-02-05T10:58:54.290Z,5.00
2023-02-05T11:01:25.847Z,4.70
2023-02-05T11:04:06.667Z,4.50
2023-02-05T11:06:40.953Z,4.50
2023-02-05T11:09:31.536Z,4.50
2023-02-05T11:12:01.567Z,4.40
2023-02-05T11:14:37.084Z,4.40
2023-02-05T11:17:11.154Z,4.50
2023-02-05T11:19:39.502Z,4.50
2023-02-05T11:22:07.632Z,4.60
2023-02-05T11:24:39.390Z,4.50
2023-02-05T11:27:29.938Z,4.50
2023-02-05T11:30:00.630Z,4.40
2023-02-05T11:32:40.053Z,4.60
2023-02-05T11:35:19.427Z,4.40
2023-02-05T11:37:50.082Z,4.30
2023-02-05T11:40:22.900Z,4.40
2023-02-05T11:43:05.446Z,4.30
2023-02-05T11:45:48.624Z,4.40
2023-02-05T11:48:30.174Z,4.30
2023-02-05T11:50:58.580Z,4.40
2023-02-05T11:53:26.769Z,4.40
2023-02-05T11:55:58.153Z,4.40
2023-02-05T11:58:36.486Z,4.40
2023-02-05T12:01:07.771Z,4.30
2023-02-05T12:03:40.279Z,4.40
2023-02-05T12:06:18.104Z,4.50
2023-02-05T12:08:49.433Z,4.40
2023-02-05T12:11:56.098Z,4.50
2023-02-05T12:14:33.683Z,4.50
2023-02-05T12:17:13.850Z,4.40
2023-02-05T12:19:52.928Z,4.40
2023-02-05T12:22:36.458Z,4.40
2023-02-05T12:25:18.204Z,4.30
2023-02-05T12:27:58.346Z,4.30
2023-02-05T12:30:40.695Z,4.30
2023-02-05T12:33:37.004Z,4.10
2023-02-05T12:36:22.120Z,4.10
2023-02-05T12:39:03.223Z,4.10
2023-02-05T12:41:46.990Z,4.00
2023-02-05T12:44:31.929Z,4.10
2023-02-05T12:47:14.267Z,4.00
2023-02-05T12:50:01.469Z,4.00
2023-02-05T12:52:43.804Z,3.90
2023-02-05T12:55:24.992Z,3.80
2023-02-05T12:57:57.262Z,3.80
2023-02-05T13:00:29.846Z,3.90
2023-02-05T13:03:07.170Z,3.90
2023-02-05T13:05:40.860Z,3.80
2023-02-05T13:08:18.577Z,3.80
2023-02-05T13:10:51.675Z,3.70
2023-02-05T13:13:37.242Z,3.60
2023-02-05T13:16:12.442Z,3.50
2023-02-05T13:18:44.254Z,3.40
2023-02-05T13:21:34.249Z,3.50
2023-02-05T13:24:30.981Z,3.50
2023-02-05T13:27:17.041Z,3.50
2023-02-05T13:29:51.192Z,3.50
2023-02-05T13:32:25.356Z,3.50
2023-02-05T13:34:56.651Z,3.40
2023-02-05T13:37:43.036Z,3.40
2023-02-05T13:40:32.701Z,3.40
2023-02-05T13:43:29.690Z,3.30
2023-02-05T13:46:30.112Z,3.30
2023-02-05T13:49:47.796Z,3.30
2023-02-05T13:52:36.598Z,3.30
2023-02-05T13:55:45.058Z,3.30
2023-02-05T13:58:21.930Z,3.40
2023-02-05T14:00:59.524Z,3.40
2023-02-05T14:03:55.125Z,3.40
2023-02-05T14:06:28.238Z,3.40
2023-02-05T14:09:04.242Z,3.40
2023-02-05T14:11:47.994Z,3.40
2023-02-05T14:14:29.506Z,3.40
2023-02-05T14:17:00.277Z,3.40
2023-02-05T14:19:56.935Z,3.40
2023-02-05T14:22:42.132Z,3.40
2023-02-05T14:25:41.584Z,3.30
2023-02-05T14:28:47.636Z,3.40
2023-02-05T14:31:47.598Z,3.30
2023-02-05T14:34:51.276Z,3.30
2023-02-05T14:37:40.645Z,3.40
2023-02-05T14:40:29.642Z,3.40
2023-02-05T14:43:10.005Z,3.40
2023-02-05T14:45:47.376Z,3.40
2023-02-05T14:48:31.376Z,3.40
2023-02-05T14:51:05.038Z,3.40
2023-02-05T14:53:33.939Z,3.40
2023-02-05T14:56:03.126Z,3.40
2023-02-05T14:58:35.156Z,3.40
2023-02-05T15:01:42.973Z,3.40
2023-02-05T15:04:24.534Z,3.40
2023-02-05T15:07:12.094Z,3.40
2023-02-05T15:09:45.212Z,3.30
2023-02-05T15:12:41.941Z,3.30
2023-02-05T15:15:32.692Z,3.30
2023-02-05T15:18:17.919Z,3.30
2023-02-05T15:20:49.218Z,3.30
2023-02-05T15:23:36.298Z,3.30
2023-02-05T15:26:07.917Z,3.30
2023-02-05T15:28:39.573Z,3.30
2023-02-05T15:31:27.315Z,3.30
2023-02-05T15:34:27.901Z,3.30
2023-02-05T15:36:58.652Z,3.30
2023-02-05T15:39:32.915Z,3.30
2023-02-05T15:42:03.221Z,3.30
2023-02-05T15:44:33.098Z,3.30
2023-02-05T15:47:05.292Z,3.20
2023-02-05T15:49:38.882Z,3.20
2023-02-05T15:52:07.342Z,3.20
2023-02-05T15:55:11.531Z,3.20
2023-02-05T15:57:40.558Z,3.20
2023-02-05T16:00:12.155Z,3.10
2023-02-05T16:02:45.774Z,3.10
2023-02-05T16:05:23.051Z,3.00
2023-02-05T16:07:58.153Z,3.10
2023-02-05T16:10:28.133Z,3.00
2023-02-05T16:13:00.352Z,3.00
2023-02-05T16:15:31.529Z,3.00
2023-02-05T16:18:00.964Z,3.00
2023-02-05T16:20:34.644Z,3.00
2023-02-05T16:23:06.405Z,3.00
2023-02-05T16:25:40.532Z,3.00
2023-02-05T16:28:16.309Z,2.90
2023-02-05T16:30:46.494Z,2.90
2023-02-05T16:33:24.614Z,2.90
2023-02-05T16:35:54.998Z,2.90
2023-02-05T16:38:24.268Z,2.90
2023-02-05T16:40:54.889Z,2.90
2023-02-05T16:43:32.734Z,3.00
2023-02-05T16:46:26.379Z,2.80
2023-02-05T16:48:56.975Z,2.90
2023-02-05T16:51:55.806Z,2.80
2023-02-05T16:54:31.258Z,2.70
2023-02-05T16:57:08.273Z,2.70
2023-02-05T16:59:40.730Z,2.70
2023-02-05T17:02:25.746Z,2.60
2023-02-05T17:04:57.597Z,2.60
2023-02-05T17:07:27.179Z,2.60
2023-02-05T17:10:10.218Z,2.60
2023-02-05T17:12:47.741Z,2.70
2023-02-05T17:15:40.165Z,2.60
2023-02-05T17:18:26.734Z,2.60
2023-02-05T17:21:22.932Z,2.60
2023-02-05T17:23:53.001Z,2.60
2023-02-05T17:26:42.849Z,2.60
2023-02-05T17:29:16.827Z,2.60
2023-02-05T17:31:45.069Z,2.60
2023-02-05T17:34:13.212Z,2.60
2023-02-05T17:36:41.315Z,2.60
2023-02-05T17:39:10.882Z,2.60
2023-02-05T17:41:56.237Z,2.70
2023-02-05T17:44:24.323Z,2.60
2023-02-05T17:46:54.054Z,2.60
2023-02-05T17:49:22.222Z,2.60
2023-02-05T17:51:53.800Z,2.60
2023-02-05T17:54:26.290Z,2.60
2023-02-05T17:56:56.740Z,2.60
2023-02-05T17:59:26.494Z,2.50
2023-02-05T18:01:54.570Z,2.50
2023-02-05T18:04:23.223Z,2.60
2023-02-05T18:06:51.918Z,2.60
2023-02-05T18:09:20.206Z,2.50
2023-02-05T18:11:49.653Z,2.60
2023-02-05T18:14:17.641Z,2.60
2023-02-05T18:16:45.721Z,2.60
2023-02-05T18:19:34.739Z,2.50
2023-02-05T18:22:03.152Z,2.50
2023-02-05T18:24:31.187Z,2.50
2023-02-05T18:27:00.586Z,2.70
2023-02-05T18:29:28.732Z,2.50
2023-02-05T18:31:56.770Z,2.60
2023-02-05T18:34:26.635Z,2.60
2023-02-05T18:36:54.962Z,2.50
2023-02-05T18:39:23.461Z,2.60
2023-02-05T18:41:51.429Z,2.50
2023-02-05T18:44:20.829Z,2.60
2023-02-05T18:46:48.793Z,2.50
2023-02-05T18:49:17.018Z,2.50
2023-02-05T18:51:45.228Z,2.50
2023-02-05T18:54:13.226Z,2.50
2023-02-05T18:56:41.572Z,2.50
2023-02-05T18:59:13.509Z,2.40
2023-02-05T19:01:43.518Z,2.40
2023-02-05T19:04:13.457Z,2.40
2023-02-05T19:06:42.674Z,2.40
2023-02-05T19:09:12.139Z,2.40
2023-02-05T19:11:51.663Z,2.30
2023-02-05T19:14:21.706Z,2.40
2023-02-05T19:16:51.328Z,2.40
2023-02-05T19:19:23.889Z,2.40
2023-02-05T19:21:53.515Z,2.40
2023-02-05T19:24:22.527Z,2.40
2023-02-05T19:26:51.228Z,2.40
2023-02-05T19:29:21.053Z,2.30
2023-02-05T19:31:52.536Z,2.40
2023-02-05T19:34:22.039Z,2.40
2023-02-05T19:36:50.022Z,2.40
2023-02-05T19:39:21.965Z,2.40
2023-02-05T19:41:51.830Z,2.40
2023-02-05T19:44:20.162Z,2.40
2023-02-05T19:46:48.960Z,2.50
2023-02-05T19:49:20.106Z,2.50
2023-02-05T19:51:49.542Z,2.40
2023-02-05T19:54:21.174Z,2.50
2023-02-05T19:56:49.627Z,2.40
2023-02-05T19:59:19.389Z,2.50
2023-02-05T20:01:47.604Z,2.70
2023-02-05T20:04:17.731Z,2.60
2023-02-05T20:06:48.001Z,2.60
2023-02-05T20:09:17.809Z,2.50
2023-02-05T20:11:47.657Z,2.60
2023-02-05T20:14:17.041Z,2.50
2023-02-05T20:16:45.716Z,2.60
2023-02-05T20:19:15.680Z,2.60
2023-02-05T20:21:44.596Z,2.60
2023-02-05T20:24:17.327Z,2.70
2023-02-05T20:26:47.881Z,2.70
2023-02-05T20:29:33.784Z,2.70
2023-02-05T20:32:02.118Z,2.70
2023-02-05T20:34:34.005Z,2.80
2023-02-05T20:37:05.563Z,2.70
2023-02-05T20:39:39.685Z,2.70
2023-02-05T20:42:07.959Z,2.70
2023-02-05T20:44:37.267Z,2.70
2023-02-05T20:47:05.822Z,2.70
2023-02-05T20:49:35.522Z,2.70
2023-02-05T20:52:03.598Z,2.60
2023-02-05T20:54:44.260Z,2.60
2023-02-05T20:57:12.314Z,2.60
2023-02-05T20:59:42.737Z,2.50
2023-02-05T21:02:13.661Z,2.50
2023-02-05T21:04:44.165Z,2.40
2023-02-05T21:07:15.056Z,2.50
2023-02-05T21:09:46.146Z,2.70
2023-02-05T21:12:14.122Z,2.60
2023-02-05T21:14:42.160Z,2.60
2023-02-05T21:17:10.465Z,2.60
2023-02-05T21:19:40.122Z,2.70
2023-02-05T21:22:20.522Z,2.60
2023-02-05T21:24:50.684Z,2.50
2023-02-05T21:27:21.822Z,2.60
2023-02-05T21:29:51.019Z,2.60
2023-02-05T21:32:19.358Z,2.50
2023-02-05T21:34:47.337Z,2.50
2023-02-05T21:37:15.388Z,2.60
2023-02-05T21:39:44.239Z,2.50
2023-02-05T21:42:13.794Z,2.60
2023-02-05T21:44:41.909Z,2.60
2023-02-05T21:47:09.994Z,2.60
2023-02-05T21:49:43.987Z,2.60
2023-02-05T21:52:20.210Z,2.70
2023-02-05T21:54:59.546Z,2.70
2023-02-05T21:57:28.904Z,2.70
2023-02-05T21:59:58.444Z,2.70
2023-02-05T22:02:27.332Z,2.70
2023-02-05T22:04:58.678Z,2.70
2023-02-05T22:07:32.642Z,2.70
2023-02-05T22:10:00.874Z,2.70
2023-02-05T22:12:30.186Z,2.70
2023-02-05T22:14:58.186Z,2.70
2023-02-05T22:17:26.180Z,2.70
2023-02-05T22:19:54.133Z,2.70
2023-02-05T22:22:22.138Z,2.70
2023-02-05T22:24:51.741Z,2.80
2023-02-05T22:27:19.964Z,2.70
2023-02-05T22:29:50.178Z,2.80
2023-02-05T22:32:18.185Z,2.70
2023-02-05T22:34:46.317Z,2.60
2023-02-05T22:37:14.454Z,2.60
2023-02-05T22:39:43.466Z,2.60
2023-02-05T22:42:11.445Z,2.60
2023-02-05T22:44:39.515Z,2.60
2023-02-05T22:47:08.849Z,2.60
2023-02-05T22:49:36.913Z,2.60
2023-02-05T22:52:15.122Z,2.60
2023-02-05T22:54:43.278Z,2.60
2023-02-05T22:57:11.227Z,2.60
2023-02-05T22:59:39.275Z,2.70
2023-02-05T23:02:10.658Z,2.70
2023-02-05T23:04:38.751Z,2.70
2023-02-05T23:07:06.908Z,2.70
2023-02-05T23:09:34.849Z,2.70
2023-02-05T23:12:03.264Z,2.70
2023-02-05T23:14:45.785Z,2.70
2023-02-05T23:17:15.139Z,2.70
2023-02-05T23:19:43.212Z,2.80
2023-02-05T23:22:11.149Z,2.80
2023-02-05T23:24:40.600Z,2.80
2023-02-05T23:27:08.598Z,2.80
2023-02-05T23:29:37.133Z,2.80
2023-02-05T23:32:15.043Z,2.80
2023-02-05T23:34:44.754Z,2.80
2023-02-05T23:37:26.053Z,2.80
2023-02-05T23:39:54.061Z,2.80
2023-02-05T23:42:22.005Z,2.70
2023-02-05T23:44:50.140Z,2.80
2023-02-05T23:47:18.165Z,2.80
2023-02-05T23:49:47.496Z,2.70
2023-02-05T23:52:15.478Z,2.70
2023-02-05T23:54:54.351Z,2.70
2023-02-05T23:57:23.385Z,2.70
2023-02-05T23:59:51.361Z,2.70
